Time;durP1;ratioP1;P1;durP2;ratioP2;P2;SDS_P1;SDS_P2;PMS_P1;PMS_P2;Temp;Humidity;BMP_temperature;BMP_pressure;BME280_temperature;BME280_humidity;BME280_pressure;Samples;Min_cycle;Max_cycle;Signal;HPM_P1;HPM_P2
2022/06/02 00:00:48;;;;;;;;;;;;;;;-140.72;100.00;52656.69;4973087;28;19918;-67
2022/06/02 00:03:34;;;;;;;;;;;;;;;-140.72;100.00;52662.78;4957600;28;20017;-68
2022/06/02 00:06:13;;;;;;;;;;;;;;;-140.72;100.00;52638.41;4982886;28;20403;-67
2022/06/02 00:08:38;;;;;;;;;;;;;;;-140.72;100.00;52666.84;4964769;28;19918;-68
2022/06/02 00:11:13;;;;;;;;;;;;;;;-140.72;100.00;52646.53;4976890;28;19977;-68
2022/06/02 00:13:48;;;;;;;;;;;;;;;-140.72;100.00;52679.00;4979518;28;20001;-67
2022/06/02 00:16:17;;;;;;;;;;;;;;;-140.72;100.00;52672.91;4981424;28;19940;-68
2022/06/02 00:19:13;;;;;;;;;;;;;;;-140.72;100.00;52646.53;4970571;28;19930;-67
2022/06/02 00:21:50;;;;;;;;;;;;;;;-140.72;100.00;52648.56;4939547;28;20364;-68
2022/06/02 00:24:28;;;;;;;;;;;;;;;-140.72;100.00;52654.66;4970188;28;19925;-67
2022/06/02 00:27:25;;;;;;;;;;;;;;;-140.72;100.00;52679.00;4980349;28;20016;-67
2022/06/02 00:29:50;;;;;;;;;;;;;;;-140.72;100.00;52685.09;4929895;28;19918;-67
2022/06/02 00:32:19;;;;;;;;;;;;;;;-140.72;100.00;52654.66;4982867;28;19918;-68
2022/06/02 00:34:47;;;;;;;;;;;;;;;-140.72;100.00;52662.78;4966842;28;19969;-67
2022/06/02 00:37:32;;;;;;;;;;;;;;;-140.72;100.00;52660.75;4978391;28;19930;-67
2022/06/02 00:39:59;;;;;;;;;;;;;;;-140.72;100.00;52679.00;4961021;28;19926;-68
2022/06/02 00:42:27;;;;;;;;;;;;;;;-140.72;100.00;52632.34;4968158;28;19926;-68
2022/06/02 00:44:55;;;;;;;;;;;;;;;-140.72;100.00;52679.00;4990716;28;19933;-67
2022/06/02 00:47:26;;;;;;;;;;;;;;;-140.72;100.00;52707.41;4985486;28;19961;-68
2022/06/02 00:50:00;;;;;;;;;;;;;;;-140.72;100.00;52648.56;4983811;28;19924;-68
2022/06/02 00:52:31;;;;;;;;;;;;;;;-140.72;100.00;52687.13;4983700;28;19996;-67
2022/06/02 00:58:06;;;;;;;;;;;;;;;-140.72;100.00;52662.78;4991498;28;19925;-68
2022/06/02 01:00:48;;;;;;;;;;;;;;;-140.72;100.00;52687.13;4964497;28;20301;-68
2022/06/02 01:03:16;;;;;;;;;;;;;;;-140.72;100.00;52674.94;4988998;28;20009;-68
2022/06/02 01:05:51;;;;;;;;;;;;;;;-140.72;100.00;52703.34;4980209;28;19919;-67
2022/06/02 01:08:16;;;;;;;;;;;;;;;-140.72;100.00;52650.59;4967589;28;19918;-67
2022/06/02 01:10:47;;;;;;;;;;;;;;;-140.72;100.00;52693.22;4989721;28;20029;-67
2022/06/02 01:13:22;;;;;;;;;;;;;;;-140.72;100.00;52644.50;4986113;28;20445;-68
2022/06/02 01:15:56;;;;;;;;;;;;;;;-140.72;100.00;52658.72;4991894;28;19918;-68
2022/06/02 01:18:24;;;;;;;;;;;;;;;-140.72;100.00;52670.88;4989350;28;19940;-68
2022/06/02 01:20:52;;;;;;;;;;;;;;;-140.72;100.00;52681.03;4986118;28;19922;-67
2022/06/02 01:23:17;;;;;;;;;;;;;;;-140.72;100.00;52672.91;4968163;28;19918;-68
2022/06/02 01:26:03;;;;;;;;;;;;;;;-140.72;100.00;52687.13;4964768;28;19918;-68
2022/06/02 01:28:31;;;;;;;;;;;;;;;-140.72;100.00;52711.47;4980975;28;19925;-68
2022/06/02 01:31:07;;;;;;;;;;;;;;;-140.72;100.00;52664.81;4971616;28;20012;-68
2022/06/02 01:33:32;;;;;;;;;;;;;;;-140.72;100.00;52674.94;4985902;28;20395;-68
2022/06/02 01:36:12;;;;;;;;;;;;;;;-140.72;100.00;52658.72;4984691;28;19925;-67
2022/06/02 01:38:46;;;;;;;;;;;;;;;-140.72;100.00;52636.38;4981300;28;19918;-67
2022/06/02 01:41:24;;;;;;;;;;;;;;;-140.72;100.00;52687.13;4987437;28;19925;-68
2022/06/02 01:43:49;;;;;;;;;;;;;;;-140.72;100.00;52685.09;4982830;28;19918;-68
2022/06/02 01:46:23;;;;;;;;;;;;;;;-140.72;100.00;52662.78;4970612;28;19961;-68
2022/06/02 01:49:27;;;;;;;;;;;;;;;-140.72;100.00;52658.72;4991504;28;19917;-68
2022/06/02 01:52:00;;;;;;;;;;;;;;;-140.72;100.00;52638.41;4897134;29;19938;-67
2022/06/02 01:54:45;;;;;;;;;;;;;;;-140.72;100.00;52654.66;4904546;29;19928;-68
2022/06/02 01:57:29;;;;;;;;;;;;;;;-140.72;100.00;52664.81;4937272;28;19918;-67
2022/06/02 01:59:58;;;;;;;;;;;;;;;-140.72;100.00;52713.50;4968111;28;19922;-68
2022/06/02 02:02:42;;;;;;;;;;;;;;;-140.72;100.00;52697.28;4986796;28;19955;-68
2022/06/02 02:05:13;;;;;;;;;;;;;;;-140.72;100.00;52670.88;4966177;28;19987;-67
2022/06/02 02:07:47;;;;;;;;;;;;;;;-140.72;100.00;52723.66;4982962;28;19925;-68
2022/06/02 02:10:15;;;;;;;;;;;;;;;-140.72;100.00;52715.53;4987926;28;20011;-68
2022/06/02 02:12:43;;;;;;;;;;;;;;;-140.72;100.00;52654.66;4971128;28;20056;-68
2022/06/02 02:15:36;;;;;;;;;;;;;;;-140.72;100.00;52622.19;4969723;28;19922;-68
2022/06/02 02:18:20;;;;;;;;;;;;;;;-140.72;100.00;52679.00;4985700;28;20376;-67
2022/06/02 02:20:57;;;;;;;;;;;;;;;-140.72;100.00;52676.97;4985416;28;19926;-68
2022/06/02 02:23:36;;;;;;;;;;;;;;;-140.72;100.00;52683.06;4983005;28;19925;-68
2022/06/02 02:26:09;;;;;;;;;;;;;;;-140.72;100.00;52622.19;4995077;28;19922;-68
2022/06/02 02:28:34;;;;;;;;;;;;;;;-140.72;100.00;52662.78;4982568;28;19918;-67
2022/06/02 02:31:02;;;;;;;;;;;;;;;-140.72;100.00;52687.13;4968788;28;20407;-67
2022/06/02 03:15:54;;;;;;;;;;;;;;;-140.72;100.00;52676.97;5482423;23;19945;-81
2022/06/02 03:18:38;;;;;;;;;;;;;;;-140.72;100.00;52670.88;4971891;28;19933;-82
2022/06/02 03:21:15;;;;;;;;;;;;;;;-140.72;100.00;52695.25;4971545;28;19926;-82
2022/06/02 03:23:43;;;;;;;;;;;;;;;-140.72;100.00;52695.25;4968597;28;20025;-82
2022/06/02 03:26:20;;;;;;;;;;;;;;;-140.72;100.00;52709.44;4974432;28;20404;-82
2022/06/02 03:29:01;;;;;;;;;;;;;;;-140.72;100.00;52703.34;4979521;23;19927;-81
2022/06/02 03:31:48;;;;;;;;;;;;;;;-140.72;100.00;52674.94;4982411;28;19926;-81
2022/06/02 03:34:32;;;;;;;;;;;;;;;-140.72;100.00;52719.59;4980656;28;19918;-81
2022/06/02 03:37:01;;;;;;;;;;;;;;;-140.72;100.00;52664.81;4972609;28;19989;-80
2022/06/02 03:39:41;;;;;;;;;;;;;;;-140.72;100.00;52705.38;4972311;28;19926;-81
2022/06/02 03:42:19;;;;;;;;;;;;;;;-140.72;100.00;52679.00;4973700;28;19918;-82
2022/06/02 03:44:45;;;;;;;;;;;;;;;-140.72;100.00;52735.81;4977333;28;20014;-81
2022/06/02 04:20:41;;;;;;;;;;;;;;;-140.72;100.00;52652.63;5507473;23;19914;-82
2022/06/02 04:23:11;;;;;;;;;;;;;;;-140.72;100.00;52681.03;4973703;28;19918;-82
2022/06/02 04:25:48;;;;;;;;;;;;;;;-140.72;100.00;52687.13;4971196;28;20029;-83
2022/06/02 04:28:17;;;;;;;;;;;;;;;-140.72;100.00;52676.97;4971755;28;19992;-84
2022/06/02 04:30:45;;;;;;;;;;;;;;;-140.72;100.00;52679.00;4974571;28;19922;-84
2022/06/02 04:33:30;;;;;;;;;;;;;;;-140.72;100.00;52697.28;4977115;28;19937;-88
2022/06/02 04:36:13;;;;;;;;;;;;;;;-140.72;100.00;52670.88;4970849;28;20324;-85
2022/06/02 04:39:01;;;;;;;;;;;;;;;-140.72;100.00;52695.25;4975581;28;19925;-84
2022/06/02 04:41:44;;;;;;;;;;;;;;;-140.72;100.00;52652.63;4974065;28;19922;-85
2022/06/02 04:44:25;;;;;;;;;;;;;;;-140.72;100.00;52636.38;4975068;28;20033;-83
2022/06/02 04:46:59;;;;;;;;;;;;;;;-140.72;100.00;52679.00;4975786;28;20393;-85
2022/06/02 04:49:40;;;;;;;;;;;;;;;-140.72;100.00;52691.19;4977096;28;20036;-85
2022/06/02 04:52:11;;;;;;;;;;;;;;;-140.72;100.00;52632.34;4971183;28;19918;-83
2022/06/02 04:54:44;;;;;;;;;;;;;;;-140.72;100.00;52674.94;4975038;28;19945;-91
2022/06/02 04:57:28;;;;;;;;;;;;;;;-140.72;100.00;52650.59;4985480;28;20297;-83
2022/06/02 05:00:06;;;;;;;;;;;;;;;-140.72;100.00;52670.88;4977839;28;19966;-84
2022/06/02 05:02:49;;;;;;;;;;;;;;;-140.72;100.00;52681.03;4975788;28;19918;-82
2022/06/02 05:05:21;;;;;;;;;;;;;;;-140.72;100.00;52662.78;4976306;28;19922;-84
2022/06/02 05:07:46;;;;;;;;;;;;;;;-140.72;100.00;52656.69;4971552;28;19934;-84
2022/06/02 05:10:11;;;;;;;;;;;;;;;-140.72;100.00;52644.50;4975173;28;19919;-83
2022/06/02 05:12:58;;;;;;;;;;;;;;;-140.72;100.00;52648.56;4976649;28;19925;-83
2022/06/02 05:15:42;;;;;;;;;;;;;;;-140.72;100.00;52640.44;4972276;28;21067;-82
2022/06/02 05:18:22;;;;;;;;;;;;;;;-140.72;100.00;52634.38;4976650;28;19926;-82
2022/06/02 05:21:03;;;;;;;;;;;;;;;-140.72;100.00;52626.25;4973038;28;20296;-82
2022/06/02 05:23:47;;;;;;;;;;;;;;;-140.72;100.00;52626.25;4976144;28;19953;-82
2022/06/02 05:26:21;;;;;;;;;;;;;;;-140.72;100.00;52626.25;4970471;28;19932;-84
2022/06/02 05:28:46;;;;;;;;;;;;;;;-140.72;100.00;52650.59;4972090;28;19965;-81
2022/06/02 05:37:40;;;;;;;;;;;;;;;-140.72;100.00;52599.88;4956087;28;19906;-81
2022/06/02 05:40:13;;;;;;;;;;;;;;;-140.72;100.00;52607.97;4974372;28;20008;-81
2022/06/02 05:42:45;;;;;;;;;;;;;;;-140.72;100.00;52630.31;4976259;28;19920;-82
2022/06/02 05:45:39;;;;;;;;;;;;;;;-140.72;100.00;52603.94;4974893;28;19906;-81
2022/06/02 05:48:07;;;;;;;;;;;;;;;-140.72;100.00;52622.19;4971015;28;20016;-81
2022/06/02 05:50:52;;;;;;;;;;;;;;;-140.72;100.00;52557.25;4973500;28;19957;-80
2022/06/02 06:02:44;;;;;;;;;;;;;;;-140.72;100.00;52581.59;5165736;23;20009;-81
2022/06/02 06:05:14;;;;;;;;;;;;;;;-140.72;100.00;52599.88;4990548;28;19928;-81
2022/06/02 06:07:45;;;;;;;;;;;;;;;-140.72;100.00;52599.88;4989983;28;20005;-81
2022/06/02 06:10:20;;;;;;;;;;;;;;;-140.72;100.00;52614.06;4992711;28;19922;-81
2022/06/02 06:13:04;;;;;;;;;;;;;;;-140.72;100.00;52628.28;4993198;28;19933;-82
2022/06/02 06:15:45;;;;;;;;;;;;;;;-140.72;100.00;52585.66;4990193;28;19922;-82
2022/06/02 06:18:29;;;;;;;;;;;;;;;-140.72;100.00;52567.41;4996006;28;19918;-82
2022/06/02 06:21:07;;;;;;;;;;;;;;;-140.72;100.00;52575.50;4992970;28;19952;-82
2022/06/02 06:23:48;;;;;;;;;;;;;;;-140.72;100.00;52571.47;4992606;28;20148;-81
2022/06/02 06:26:21;;;;;;;;;;;;;;;-140.72;100.00;52587.69;4990896;28;19922;-82
2022/06/02 06:29:05;;;;;;;;;;;;;;;-140.72;100.00;52559.28;4986967;28;19929;-82
2022/06/02 06:31:39;;;;;;;;;;;;;;;-140.72;100.00;52565.38;4987998;28;19922;-82
2022/06/02 06:34:12;;;;;;;;;;;;;;;-140.72;100.00;52581.59;4990539;28;20089;-82
2022/06/02 06:36:56;;;;;;;;;;;;;;;-140.72;100.00;52553.19;4992495;28;19917;-81
2022/06/02 06:39:48;;;;;;;;;;;;;;;-140.72;100.00;52532.91;4989880;28;19924;-82
2022/06/02 06:42:16;;;;;;;;;;;;;;;-140.72;100.00;52539.00;4990663;28;19917;-82
2022/06/02 06:44:51;;;;;;;;;;;;;;;-140.72;100.00;52547.09;4991313;28;19921;-83
2022/06/02 06:47:40;;;;;;;;;;;;;;;-140.72;100.00;52563.34;4994946;28;19936;-82
2022/06/02 06:50:11;;;;;;;;;;;;;;;-140.72;100.00;52504.50;4975511;28;19925;-82
2022/06/02 06:52:55;;;;;;;;;;;;;;;-140.72;100.00;52553.19;4985516;28;19925;-81
2022/06/02 06:55:39;;;;;;;;;;;;;;;-140.72;100.00;52488.25;4991048;28;19929;-81
2022/06/02 06:58:22;;;;;;;;;;;;;;;-140.72;100.00;52508.56;4990576;28;19921;-82
2022/06/02 07:00:47;;;;;;;;;;;;;;;-140.72;100.00;52534.94;4993181;28;20103;-83
2022/06/02 07:03:38;;;;;;;;;;;;;;;-140.72;100.00;52522.75;4992026;28;19969;-82
2022/06/02 07:06:15;;;;;;;;;;;;;;;-140.72;100.00;52532.91;4978048;28;19996;-80
2022/06/02 07:08:46;;;;;;;;;;;;;;;-140.72;100.00;52520.72;4992645;28;20099;-82
2022/06/02 07:14:26;;;;;;;;;;;;;;;-140.72;100.00;52567.41;4991085;28;19941;-83
2022/06/02 07:16:58;;;;;;;;;;;;;;;-140.72;100.00;52541.03;4991127;28;19971;-82
2022/06/02 07:19:34;;;;;;;;;;;;;;;-140.72;100.00;52541.03;4992873;28;19936;-82
2022/06/02 07:22:02;;;;;;;;;;;;;;;-140.72;100.00;52502.47;4993643;28;19948;-83
2022/06/02 07:24:46;;;;;;;;;;;;;;;-140.72;100.00;52567.41;4990757;28;20657;-83
2022/06/02 07:27:20;;;;;;;;;;;;;;;-140.72;100.00;52516.66;4994743;28;19949;-82
2022/06/02 07:29:57;;;;;;;;;;;;;;;-140.72;100.00;52563.34;4991344;28;19959;-84
2022/06/02 07:32:22;;;;;;;;;;;;;;;-140.72;100.00;52508.56;4990040;28;19926;-83
2022/06/02 07:35:06;;;;;;;;;;;;;;;-140.72;100.00;52502.47;4994123;28;19941;-83
2022/06/02 07:37:37;;;;;;;;;;;;;;;-140.72;100.00;52526.81;4992857;28;19922;-83
2022/06/02 07:40:18;;;;;;;;;;;;;;;-140.72;100.00;52496.38;4986390;28;20104;-83
2022/06/02 07:42:43;;;;;;;;;;;;;;;-140.72;100.00;52508.56;4989158;28;19949;-83
2022/06/02 07:45:11;;;;;;;;;;;;;;;-140.72;100.00;52488.25;4995835;28;19965;-82
2022/06/02 07:47:48;;;;;;;;;;;;;;;-140.72;100.00;52526.81;4993027;28;19918;-82
2022/06/02 07:50:14;;;;;;;;;;;;;;;-140.72;100.00;52524.78;4991667;28;19918;-83
2022/06/02 07:52:46;;;;;;;;;;;;;;;-140.72;100.00;52494.34;4987932;28;19968;-83
2022/06/02 07:55:30;;;;;;;;;;;;;;;-140.72;100.00;52516.66;4992723;28;19917;-82
2022/06/02 07:58:16;;;;;;;;;;;;;;;-140.72;100.00;52494.34;4989402;28;19968;-82
2022/06/02 08:00:51;;;;;;;;;;;;;;;-140.72;100.00;52435.50;4989074;28;19918;-81
2022/06/02 08:03:50;;;;;;;;;;;;;;;-140.72;100.00;52484.19;4984963;28;19976;-84
2022/06/02 08:09:30;;;;;;;;;;;;;;;-140.72;100.00;52453.75;4991262;28;19990;-80
2022/06/02 08:12:01;;;;;;;;;;;;;;;-140.72;100.00;52431.44;4993026;28;20365;-80
2022/06/02 08:14:59;;;;;;;;;;;;;;;-140.72;100.00;52403.03;4987113;28;19929;-79
2022/06/02 08:17:43;;;;;;;;;;;;;;;-140.72;100.00;52431.44;4958566;28;19918;-82
2022/06/02 08:20:11;;;;;;;;;;;;;;;-140.72;100.00;52421.28;4988163;28;19962;-81
2022/06/02 08:22:45;;;;;;;;;;;;;;;-140.72;100.00;52429.41;4986708;28;19925;-81
2022/06/02 08:25:12;;;;;;;;;;;;;;;-140.72;100.00;52386.81;4983667;28;19924;-81
2022/06/02 08:27:53;;;;;;;;;;;;;;;-140.72;100.00;52409.13;4988416;28;20360;-81
2022/06/02 08:30:18;;;;;;;;;;;;;;;-140.72;100.00;52459.84;4990695;28;20000;-83
2022/06/02 08:32:46;;;;;;;;;;;;;;;-140.72;100.00;52470.00;4990508;28;19972;-81
2022/06/02 08:35:17;;;;;;;;;;;;;;;-140.72;100.00;52390.84;4988595;28;19919;-80
2022/06/02 08:37:45;;;;;;;;;;;;;;;-140.72;100.00;52405.06;4987173;28;19918;-80
2022/06/02 08:40:22;;;;;;;;;;;;;;;-140.72;100.00;52354.34;4986869;28;19968;-81
2022/06/02 08:43:06;;;;;;;;;;;;;;;-140.72;100.00;52376.66;4989623;28;19937;-81
2022/06/02 08:45:31;;;;;;;;;;;;;;;-140.72;100.00;52344.19;4986619;28;19917;-81
2022/06/02 08:48:28;;;;;;;;;;;;;;;;;;;;;
2022/06/02 08:54:13;;;;;;;;;;;;;;;-140.72;100.00;52342.16;4986176;28;20084;-81
2022/06/02 08:56:48;;;;;;;;;;;;;;;-140.72;100.00;52309.69;4984667;28;20033;-80
2022/06/02 08:59:16;;;;;;;;;;;;;;;-140.72;100.00;52269.13;4986778;28;20018;-80
2022/06/02 09:01:56;;;;;;;;;;;;;;;-140.72;100.00;52297.53;4982774;28;19997;-80
2022/06/02 09:04:33;;;;;;;;;;;;;;;-140.72;100.00;52242.75;4987976;28;19922;-80
2022/06/02 09:06:58;;;;;;;;;;;;;;;-140.72;100.00;52285.34;4989150;28;19928;-81
2022/06/02 09:09:42;;;;;;;;;;;;;;;-140.72;100.00;52246.78;4992182;28;20024;-81
2022/06/02 09:12:19;;;;;;;;;;;;;;;-140.72;100.00;52228.53;4991970;28;19922;-81
2022/06/02 09:15:02;;;;;;;;;;;;;;;-140.72;100.00;52256.94;4989929;28;20116;-81
2022/06/02 09:17:45;;;;;;;;;;;;;;;-140.72;100.00;52214.34;4992535;28;20031;-81
2022/06/02 09:20:20;;;;;;;;;;;;;;;-140.72;100.00;52189.97;4990217;28;20000;-80
2022/06/02 09:23:07;;;;;;;;;;;;;;;-140.72;100.00;52187.97;4990981;28;20004;-83
2022/06/02 09:28:19;;;;;;;;;;;;;;;-140.72;100.00;52169.69;5141091;23;19926;-83
2022/06/02 09:30:56;;;;;;;;;;;;;;;-140.72;100.00;52147.38;4975113;28;19929;-84
2022/06/02 09:33:43;;;;;;;;;;;;;;;-140.72;100.00;52208.25;4976767;28;20307;-83
2022/06/02 09:36:34;;;;;;;;;;;;;;;-140.72;100.00;52159.56;4972938;28;19918;-82
2022/06/02 09:39:13;;;;;;;;;;;;;;;-140.72;100.00;52147.38;4977315;28;19918;-86
2022/06/02 09:41:44;;;;;;;;;;;;;;;-140.72;100.00;52173.75;4977050;28;20004;-84
2022/06/02 09:44:12;;;;;;;;;;;;;;;-140.72;100.00;52116.94;4975098;28;19929;-78
2022/06/02 09:47:14;;;;;;;;;;;;;;;-140.72;100.00;52094.63;4967923;28;19920;-82
2022/06/02 09:49:57;;;;;;;;;;;;;;;-140.72;100.00;52041.88;4958512;28;19933;-81
2022/06/02 09:52:39;;;;;;;;;;;;;;;-140.72;100.00;52066.22;4975048;28;19945;-81
2022/06/02 09:55:12;;;;;;;;;;;;;;;-140.72;100.00;52054.03;4975104;28;19966;-81
2022/06/02 09:57:55;;;;;;;;;;;;;;;-140.72;100.00;52029.69;4975635;28;19918;-82
2022/06/02 10:00:36;;;;;;;;;;;;;;;-140.72;100.00;52102.75;4967780;28;19977;-79
2022/06/02 10:03:30;;;;;;;;;;;;;;;-140.72;100.00;52054.03;4978102;28;19941;-79
2022/06/02 10:06:04;;;;;;;;;;;;;;;-140.72;100.00;52043.91;4959898;28;19918;-80
2022/06/02 10:08:48;;;;;;;;;;;;;;;-140.72;100.00;52005.34;4975934;28;19918;-81
2022/06/02 10:11:19;;;;;;;;;;;;;;;-140.72;100.00;52035.78;4981952;23;19933;-80
2022/06/02 10:14:03;;;;;;;;;;;;;;;-140.72;100.00;51972.88;4977370;28;20049;-81
2022/06/02 10:16:46;;;;;;;;;;;;;;;-140.72;97.22;51989.13;4993490;28;19918;-81
2022/06/02 10:19:29;;;;;;;;;;;;;;;-140.72;99.48;51993.19;4989114;28;19914;-80
2022/06/02 10:21:57;;;;;;;;;;;;;;;-140.72;100.00;51997.22;4985480;28;19975;-80
2022/06/02 10:24:42;;;;;;;;;;;;;;;-140.72;100.00;51956.66;4984767;28;19918;-81
2022/06/02 10:27:07;;;;;;;;;;;;;;;-140.72;100.00;51948.53;4991049;28;19989;-82
2022/06/02 10:29:36;;;;;;;;;;;;;;;-140.72;97.98;51895.78;4988975;28;19914;-82
2022/06/02 10:32:21;;;;;;;;;;;;;;;-140.72;94.69;51905.94;4985214;28;19914;-81
2022/06/02 10:34:59;;;;;;;;;;;;;;;-140.72;83.65;51912.03;4969228;28;19930;-80
2022/06/02 10:37:51;;;;;;;;;;;;;;;-140.72;80.33;51928.25;4975949;28;19956;-83
2022/06/02 10:40:19;;;;;;;;;;;;;;;-140.72;86.78;51962.75;4953894;28;19922;-82
2022/06/02 10:42:55;;;;;;;;;;;;;;;-140.72;88.40;51926.22;4964179;28;20008;-82
2022/06/02 10:45:39;;;;;;;;;;;;;;;-140.72;84.21;51857.25;4969671;28;20226;-81
2022/06/02 10:48:16;;;;;;;;;;;;;;;-140.72;83.57;51867.38;4970407;28;19918;-81
2022/06/02 10:50:56;;;;;;;;;;;;;;;-140.72;84.68;51907.97;4980718;28;19980;-82
2022/06/02 10:53:40;;;;;;;;;;;;;;;-140.72;89.94;51920.13;4977153;28;19918;-81
2022/06/02 10:56:24;;;;;;;;;;;;;;;-140.72;92.19;51976.94;4966178;28;19954;-80
2022/06/02 10:59:07;;;;;;;;;;;;;;;-140.72;100.00;52074.34;4976267;28;19974;-81
2022/06/02 11:01:41;;;;;;;;;;;;;;;-140.72;100.00;52173.75;4960342;28;19918;-81
2022/06/02 11:04:42;;;;;;;;;;;;;;;-140.72;100.00;52029.69;4974107;28;19926;-84
2022/06/02 11:07:16;;;;;;;;;;;;;;;-140.72;100.00;51989.13;4934006;29;19926;-85
2022/06/02 11:10:00;;;;;;;;;;;;;;;-140.72;100.00;51940.41;4964648;28;19997;-85
2022/06/02 11:12:47;;;;;;;;;;;;;;;-140.72;100.00;52068.25;4974378;28;20025;-87
2022/06/02 11:15:38;;;;;;;;;;;;;;;-140.72;100.00;52100.72;4966356;28;19918;-85
2022/06/02 11:18:22;;;;;;;;;;;;;;;-140.72;100.00;52177.81;4968516;28;19925;-86
2022/06/02 11:21:06;;;;;;;;;;;;;;;-140.72;100.00;52218.38;4969178;28;20028;-83
2022/06/02 11:23:50;;;;;;;;;;;;;;;-140.72;100.00;52098.69;4970367;28;19961;-84
2022/06/02 11:26:28;;;;;;;;;;;;;;;-140.72;100.00;52133.16;4949720;28;20012;-85
2022/06/02 11:29:02;;;;;;;;;;;;;;;-140.72;100.00;52070.28;4966807;28;20290;-85
2022/06/02 11:31:42;;;;;;;;;;;;;;;-140.72;100.00;52116.94;4966903;28;19952;-85
2022/06/02 11:34:19;;;;;;;;;;;;;;;-140.72;100.00;52074.34;4966074;28;19918;-84
2022/06/02 11:36:48;;;;;;;;;;;;;;;-140.72;100.00;52013.47;4961341;28;20346;-85
2022/06/02 11:39:32;;;;;;;;;;;;;;;-140.72;100.00;52025.63;4958824;28;19918;-85
2022/06/02 11:42:06;;;;;;;;;;;;;;;-140.72;98.67;51985.06;4965070;28;20001;-85
2022/06/02 11:44:50;;;;;;;;;;;;;;;-140.72;100.00;51964.78;4971747;28;19922;-86
2022/06/02 11:47:34;;;;;;;;;;;;;;;-140.72;92.26;51912.03;4962148;28;20001;-87
2022/06/02 11:50:13;;;;;;;;;;;;;;;-140.72;90.48;51826.81;4972006;28;19922;-86
2022/06/02 11:52:59;;;;;;;;;;;;;;;-140.72;89.75;51810.56;4968433;28;19918;-85
2022/06/02 11:55:27;;;;;;;;;;;;;;;-140.72;81.64;51818.69;4960626;28;19969;-85
2022/06/02 11:57:56;;;;;;;;;;;;;;;-140.72;77.73;51887.66;4975612;28;19977;-86
2022/06/02 12:00:24;;;;;;;;;;;;;;;-140.72;80.89;51918.09;4972148;28;19918;-88
2022/06/02 12:03:08;;;;;;;;;;;;;;;-140.72;100.00;51991.16;4974424;28;19922;-86
2022/06/02 12:05:33;;;;;;;;;;;;;;;-140.72;100.00;51968.81;4966867;28;19945;-86
2022/06/02 12:08:16;;;;;;;;;;;;;;;-140.72;100.00;51899.84;4961080;28;19922;-86
2022/06/02 12:10:59;;;;;;;;;;;;;;;-140.72;93.33;51940.41;4962191;28;20487;-87
2022/06/02 12:13:33;;;;;;;;;;;;;;;-140.72;87.35;51871.44;5200042;23;19926;-68
2022/06/02 12:16:17;;;;;;;;;;;;;;;-140.72;88.57;51912.03;4956947;28;19934;-68
2022/06/02 12:18:53;;;;;;;;;;;;;;;-140.72;85.64;51849.13;4951322;28;19958;-66
2022/06/02 12:21:18;;;;;;;;;;;;;;;-140.72;82.64;51899.84;4969353;28;20368;-68
2022/06/02 12:23:46;;;;;;;;;;;;;;;-140.72;76.91;51859.28;4950066;28;20374;-67
2022/06/02 12:26:23;;;;;;;;;;;;;;;-140.72;70.28;51914.03;4971722;28;19918;-68
2022/06/02 12:29:04;;;;;;;;;;;;;;;-140.72;83.40;51970.84;4967687;28;19918;-67
2022/06/02 12:31:30;;;;;;;;;;;;;;;-140.72;93.28;51991.16;4963655;28;19946;-70
2022/06/02 12:33:58;;;;;;;;;;;;;;;-140.72;85.89;52052.00;4958675;28;20413;-68
2022/06/02 12:36:42;;;;;;;;;;;;;;;-140.72;99.84;51981.00;4959867;28;19922;-69
2022/06/02 12:39:25;;;;;;;;;;;;;;;-140.72;88.68;51997.22;4954364;28;19926;-69
2022/06/02 12:42:09;;;;;;;;;;;;;;;-140.72;81.37;51989.13;4970368;28;19918;-69
2022/06/02 12:44:37;;;;;;;;;;;;;;;-140.72;88.17;51995.19;4960341;28;19929;-69
2022/06/02 12:47:05;;;;;;;;;;;;;;;-140.72;89.74;51928.25;4958115;28;20009;-69
2022/06/02 12:49:49;;;;;;;;;;;;;;;-140.72;94.40;51944.47;4945494;28;19922;-68
2022/06/02 12:52:27;;;;;;;;;;;;;;;-140.72;87.85;51889.69;4948520;29;19965;-67
2022/06/02 12:55:01;;;;;;;;;;;;;;;-140.72;79.87;51948.53;4958340;28;19930;-68
2022/06/02 12:57:26;;;;;;;;;;;;;;;-140.72;100.00;51983.03;4945608;29;19926;-71
2022/06/02 12:59:52;;;;;;;;;;;;;;;-140.72;88.05;52019.56;4952104;28;19918;-67
2022/06/02 13:02:29;;;;;;;;;;;;;;;-140.72;92.77;51995.19;4948362;28;20373;-68
2022/06/02 13:05:13;;;;;;;;;;;;;;;-140.72;92.60;51960.72;4945628;28;19923;-68
2022/06/02 13:07:47;;;;;;;;;;;;;;;-140.72;90.97;51972.88;4948007;28;20384;-68
2022/06/02 13:10:12;;;;;;;;;;;;;;;-140.72;82.52;51978.97;4961032;28;19922;-68
2022/06/02 13:12:40;;;;;;;;;;;;;;;-140.72;85.86;51936.38;4960622;29;20440;-68
2022/06/02 13:15:29;;;;;;;;;;;;;;;-140.72;91.53;51901.88;4959792;28;19935;-68
2022/06/02 13:18:00;;;;;;;;;;;;;;;-140.72;87.97;51942.44;4941648;28;20453;-68
2022/06/02 13:20:26;;;;;;;;;;;;;;;-140.72;77.29;51920.13;4948322;29;19989;-68
2022/06/02 13:23:10;;;;;;;;;;;;;;;-140.72;84.67;51942.44;4940795;29;19922;-68
2022/06/02 13:25:54;;;;;;;;;;;;;;;-140.72;78.36;51944.47;4947573;28;19923;-68
2022/06/02 13:28:22;;;;;;;;;;;;;;;-140.72;93.12;51948.53;4955464;28;19949;-68
2022/06/02 13:30:50;;;;;;;;;;;;;;;-140.72;100.00;52013.47;4952353;29;19929;-68
2022/06/02 13:33:21;;;;;;;;;;;;;;;-140.72;95.50;52058.09;4954063;28;19923;-69
2022/06/02 13:36:22;;;;;;;;;;;;;;;-140.72;100.00;52074.34;4957929;28;19965;-68
2022/06/02 13:39:22;;;;;;;;;;;;;;;-140.72;100.00;52035.78;4846724;29;19921;-67
2022/06/02 13:41:47;;;;;;;;;;;;;;;-140.72;100.00;52086.50;4855383;29;19920;-68
2022/06/02 13:44:16;;;;;;;;;;;;;;;-140.72;100.00;52033.75;4921356;29;20024;-67
2022/06/02 13:47:06;;;;;;;;;;;;;;;-140.72;100.00;52035.78;4959341;28;20291;-68
2022/06/02 13:49:39;;;;;;;;;;;;;;;-140.72;100.00;52131.16;4931947;28;19918;-69
2022/06/02 13:52:23;;;;;;;;;;;;;;;-140.72;100.00;52096.66;4959573;29;20304;-68
2022/06/02 13:58:15;;;;;;;;;;;;;;;-140.72;100.00;52013.47;4953633;29;19929;-67
2022/06/02 14:00:59;;;;;;;;;;;;;;;-140.72;99.92;52084.47;4955766;28;19930;-68
2022/06/02 14:03:43;;;;;;;;;;;;;;;-140.72;100.00;52114.91;4961427;28;19930;-69
2022/06/02 14:06:11;;;;;;;;;;;;;;;-140.72;100.00;52100.72;4958477;28;19919;-70
2022/06/02 14:08:55;;;;;;;;;;;;;;;-140.72;100.00;52102.75;4966466;28;19923;-69
2022/06/02 14:11:35;;;;;;;;;;;;;;;-140.72;100.00;52096.66;4956497;29;19923;-68
2022/06/02 14:14:00;;;;;;;;;;;;;;;-140.72;100.00;52076.34;4947599;29;19970;-68
2022/06/02 14:16:46;;;;;;;;;;;;;;;-140.72;100.00;52033.75;4960817;29;20014;-68
2022/06/02 14:19:20;;;;;;;;;;;;;;;-140.72;100.00;52114.91;4931635;29;19923;-68
2022/06/02 14:21:45;;;;;;;;;;;;;;;-140.72;100.00;52157.53;4961346;28;19922;-69
2022/06/02 14:24:15;;;;;;;;;;;;;;;-140.72;100.00;52161.56;4959902;28;19928;-68
2022/06/02 14:26:43;;;;;;;;;;;;;;;-140.72;100.00;52159.56;4949088;28;19925;-68
2022/06/02 14:29:21;;;;;;;;;;;;;;;-140.72;100.00;52224.47;4960716;28;19919;-69
2022/06/02 14:31:52;;;;;;;;;;;;;;;-140.72;100.00;52224.47;4948805;28;19961;-70
2022/06/02 14:34:33;;;;;;;;;;;;;;;-140.72;100.00;52208.25;4950947;29;20373;-67
2022/06/02 14:37:05;;;;;;;;;;;;;;;-140.72;100.00;52232.59;4949964;29;19926;-68
2022/06/02 14:39:31;;;;;;;;;;;;;;;-140.72;100.00;52234.63;4959868;28;19926;-68
2022/06/02 14:42:19;;;;;;;;;;;;;;;-140.72;100.00;52210.28;4959754;29;19918;-69
2022/06/02 14:44:59;;;;;;;;;;;;;;;-140.72;100.00;52246.78;4953195;28;20325;-68
2022/06/02 14:47:28;;;;;;;;;;;;;;;-140.72;100.00;52258.97;4950699;28;19923;-67
2022/06/02 14:50:06;;;;;;;;;;;;;;;-140.72;100.00;52261.00;4954746;28;19996;-70
2022/06/02 14:52:47;;;;;;;;;;;;;;;-140.72;100.00;52297.53;4945731;29;19919;-69
2022/06/02 14:55:13;;;;;;;;;;;;;;;-140.72;100.00;52254.91;4959219;28;19922;-69
2022/06/02 14:57:38;;;;;;;;;;;;;;;-140.72;100.00;52258.97;4955312;28;19926;-69